Hartland, Ohio
Current Conditions -  °F | °C
As of 12:53 PM on Friday 28 Nov 2014 (Local Time) from KLPR Reporting Station
Clear Clear  
Wind Chill: 14°   Ceiling: Unl
Heat Index: 24°   Visibility: 10mi
Dew Point: 16°   Wind: 10mph
Humidity: 71%   Direction: 210°SSW
Pressure: 30.28"   Gusts: NA
Location:  41.2186°N, 82.5851°W
Report Text: KLPR 281753Z AUTO 21009KT 10SM CLR M04/M09 A3028 RMK AO2 SLP265 T10441089 11044 21100 58027 TSNO
Loading
Personal Weather Stations






























Interactive Weather Map New forecast layout! Learn more

10-Day Weather Forecast

Advertisements
Track Severe Weather on mobile